Black Forest, Colorado
Current Conditions -  °F | °C
As of 10:58 PM on Saturday 22 Nov 2014 (Local Time) from KAFF Reporting Station
Few Clouds Few Clouds  
Wind Chill: 42°   Ceiling: Unl
Heat Index: 45°   Visibility: 10mi
Dew Point: 21°   Wind: 6mph
Humidity: 39%   Direction: 310°NW
Pressure: 29.62"   Gusts: NA
Location:  39.0424°N, 104.69°W
Report Text: KAFF 230558Z AUTO 31005KT 10SM FEW130 07/M06 A2962 RMK AO2 SLP983 T00711061 10122 20071 55008
Loading
Personal Weather Stations






























Interactive Weather Map New forecast layout! Learn more

10-Day Weather Forecast

Advertisements
Track Severe Weather on mobile